createdAt,value
2023-04-26T00:01:54.967Z,25.84
2023-04-26T00:04:29.708Z,25.80
2023-04-26T00:07:01.152Z,25.76
2023-04-26T00:09:31.303Z,25.72
2023-04-26T00:12:01.737Z,25.69
2023-04-26T00:14:31.493Z,25.67
2023-04-26T00:17:02.051Z,25.63
2023-04-26T00:19:34.923Z,25.59
2023-04-26T00:22:05.838Z,25.55
2023-04-26T00:24:35.751Z,25.50
2023-04-26T00:27:09.612Z,25.48
2023-04-26T00:29:39.903Z,25.43
2023-04-26T00:32:10.369Z,25.41
2023-04-26T00:34:42.914Z,25.39
2023-04-26T00:37:12.955Z,25.36
2023-04-26T00:39:43.168Z,25.33
2023-04-26T00:42:13.391Z,25.32
2023-04-26T00:44:43.573Z,25.29
2023-04-26T00:47:13.755Z,25.26
2023-04-26T00:49:46.441Z,25.25
2023-04-26T00:52:17.196Z,25.23
2023-04-26T00:54:47.131Z,25.23
2023-04-26T00:57:17.308Z,25.21
2023-04-26T00:59:47.614Z,25.20
2023-04-26T01:02:18.373Z,25.19
2023-04-26T01:04:49.987Z,25.20
2023-04-26T01:07:20.694Z,25.19
2023-04-26T01:09:52.048Z,25.17
2023-04-26T01:12:23.520Z,25.18
2023-04-26T01:14:54.375Z,25.17
2023-04-26T01:17:23.915Z,25.16
2023-04-26T01:19:55.726Z,25.15
2023-04-26T01:22:26.131Z,25.14
2023-04-26T01:24:59.300Z,25.15
2023-04-26T01:27:29.325Z,25.13
2023-04-26T01:29:59.453Z,25.12
2023-04-26T01:32:29.239Z,25.11
2023-04-26T01:34:58.876Z,25.09
2023-04-26T01:37:29.076Z,25.08
2023-04-26T01:40:00.723Z,25.04
2023-04-26T01:42:31.009Z,25.01
2023-04-26T01:45:00.880Z,24.97
2023-04-26T01:47:30.611Z,24.97
2023-04-26T01:50:00.812Z,24.96
2023-04-26T01:52:31.068Z,24.94
2023-04-26T01:55:02.808Z,24.94
2023-04-26T01:57:32.501Z,24.93
2023-04-26T02:00:02.977Z,24.92
2023-04-26T02:02:33.134Z,24.92
2023-04-26T02:05:03.664Z,24.91
2023-04-26T02:07:34.173Z,24.91
2023-04-26T02:10:06.691Z,24.91
2023-04-26T02:12:36.435Z,24.91
2023-04-26T02:15:07.530Z,24.90
2023-04-26T02:17:38.208Z,24.90
2023-04-26T02:20:10.803Z,24.89
2023-04-26T02:22:40.796Z,24.88
2023-04-26T02:25:13.862Z,24.85
2023-04-26T02:27:44.396Z,24.83
2023-04-26T02:30:15.029Z,24.82
2023-04-26T02:32:45.368Z,24.82
2023-04-26T02:35:15.786Z,24.81
2023-04-26T02:37:49.463Z,24.80
2023-04-26T02:40:22.115Z,24.80
2023-04-26T02:42:52.363Z,24.79
2023-04-26T02:45:22.335Z,24.78
2023-04-26T02:47:52.509Z,24.78
2023-04-26T02:50:22.176Z,24.78
2023-04-26T02:52:51.801Z,24.78
2023-04-26T02:55:24.258Z,24.77
2023-04-26T02:57:54.772Z,24.76
2023-04-26T03:00:25.612Z,24.75
2023-04-26T03:02:55.976Z,24.76
2023-04-26T03:05:26.693Z,24.75
2023-04-26T03:07:56.405Z,24.75
2023-04-26T03:10:28.602Z,24.71
2023-04-26T03:12:58.349Z,24.69
2023-04-26T03:15:27.832Z,24.69
2023-04-26T03:17:58.527Z,24.68
2023-04-26T03:20:28.440Z,24.67
2023-04-26T03:22:58.076Z,24.67
2023-04-26T03:25:30.225Z,24.67
2023-04-26T03:27:59.907Z,24.67
2023-04-26T03:30:30.090Z,24.66
2023-04-26T03:33:00.435Z,24.64
2023-04-26T03:35:30.381Z,24.65
2023-04-26T03:38:00.029Z,24.63
2023-04-26T03:40:31.847Z,24.61
2023-04-26T03:43:02.196Z,24.59
2023-04-26T03:45:32.273Z,24.54
2023-04-26T03:48:01.984Z,24.52
2023-04-26T03:50:32.130Z,24.49
2023-04-26T03:53:02.587Z,24.47
2023-04-26T03:55:34.677Z,24.45
2023-04-26T03:58:08.373Z,24.43
2023-04-26T04:00:40.132Z,24.41
2023-04-26T04:03:10.464Z,24.41
2023-04-26T04:05:41.121Z,24.41
2023-04-26T04:08:14.550Z,24.40
2023-04-26T04:10:47.705Z,24.40
2023-04-26T04:13:17.909Z,24.39
2023-04-26T04:15:48.617Z,24.39
2023-04-26T04:18:19.066Z,24.40
2023-04-26T04:20:49.209Z,24.41
2023-04-26T04:23:19.503Z,24.41
2023-04-26T04:25:52.048Z,24.43
2023-04-26T04:28:23.025Z,24.44
2023-04-26T04:30:53.253Z,24.45
2023-04-26T04:33:23.644Z,24.47
2023-04-26T04:35:55.295Z,24.49
2023-04-26T04:38:25.112Z,24.50
2023-04-26T04:40:57.411Z,24.53
2023-04-26T04:43:28.373Z,24.55
2023-04-26T04:45:58.953Z,24.59
2023-04-26T04:48:29.201Z,24.61
2023-04-26T04:50:58.813Z,24.65
2023-04-26T04:53:29.036Z,24.67
2023-04-26T04:56:01.179Z,24.71
2023-04-26T04:58:31.237Z,24.74
2023-04-26T05:01:03.083Z,24.76
2023-04-26T05:03:34.251Z,24.77
2023-04-26T05:06:05.011Z,24.78
2023-04-26T05:08:35.221Z,24.79
2023-04-26T05:11:06.859Z,24.82
2023-04-26T05:13:36.917Z,24.83
2023-04-26T05:16:07.652Z,24.88
2023-04-26T05:18:37.690Z,24.91
2023-04-26T05:21:08.288Z,24.95
2023-04-26T05:23:38.225Z,24.99
2023-04-26T05:26:15.998Z,25.03
2023-04-26T05:28:46.510Z,25.06
2023-04-26T05:31:16.155Z,25.11
2023-04-26T05:33:46.262Z,25.15
2023-04-26T05:36:16.891Z,25.21
2023-04-26T05:38:47.084Z,25.25
2023-04-26T05:41:18.701Z,25.31
2023-04-26T05:43:50.766Z,25.36
2023-04-26T05:46:21.417Z,25.40
2023-04-26T05:48:51.615Z,25.46
2023-04-26T05:51:21.596Z,25.50
2023-04-26T05:53:52.187Z,25.54
2023-04-26T05:56:24.624Z,25.60
2023-04-26T05:58:54.736Z,25.65
2023-04-26T06:01:24.939Z,25.71
2023-04-26T06:04:00.677Z,25.76
2023-04-26T06:06:32.910Z,25.81
2023-04-26T06:09:02.993Z,25.87
2023-04-26T06:11:34.908Z,25.93
2023-04-26T06:14:14.294Z,25.98
2023-04-26T06:16:50.095Z,26.03
2023-04-26T06:19:20.185Z,26.10
2023-04-26T06:21:52.562Z,26.16
2023-04-26T06:24:22.565Z,26.21
2023-04-26T06:26:54.465Z,26.27
2023-04-26T06:29:25.009Z,26.30
2023-04-26T06:31:54.666Z,26.33
2023-04-26T06:34:24.696Z,26.39
2023-04-26T06:36:54.967Z,26.44
2023-04-26T06:39:24.714Z,26.50
2023-04-26T06:41:56.900Z,26.58
2023-04-26T06:44:27.170Z,26.64
2023-04-26T06:46:57.739Z,26.72
2023-04-26T06:49:28.163Z,26.80
2023-04-26T06:51:58.105Z,26.84
2023-04-26T06:54:34.598Z,26.93
2023-04-26T06:57:08.120Z,27.00
2023-04-26T06:59:38.079Z,27.05
2023-04-26T07:02:09.285Z,27.12
2023-04-26T07:04:39.748Z,27.18
2023-04-26T07:07:13.036Z,27.24
2023-04-26T07:09:43.916Z,27.30
2023-04-26T07:12:16.892Z,27.36
2023-04-26T07:14:47.054Z,27.41
2023-04-26T07:17:17.592Z,27.49
2023-04-26T07:19:47.589Z,27.54
2023-04-26T07:22:17.785Z,27.59
2023-04-26T07:24:47.915Z,27.65
2023-04-26T07:27:19.424Z,27.71
2023-04-26T07:29:49.668Z,27.75
2023-04-26T07:32:19.880Z,27.79
2023-04-26T07:34:52.271Z,27.85
2023-04-26T07:37:22.380Z,27.89
2023-04-26T07:39:52.703Z,27.96
2023-04-26T07:42:24.706Z,28.01
2023-04-26T07:44:54.978Z,28.06
2023-04-26T07:47:24.656Z,28.12
2023-04-26T07:49:56.231Z,28.17
2023-04-26T07:52:26.464Z,28.21
2023-04-26T07:54:56.383Z,28.26
2023-04-26T07:57:28.747Z,28.30
2023-04-26T07:59:58.918Z,28.34
2023-04-26T08:02:43.563Z,28.40
2023-04-26T08:05:15.840Z,28.45
2023-04-26T08:07:46.135Z,28.49
2023-04-26T08:10:16.563Z,28.54
2023-04-26T08:12:48.466Z,28.58
2023-04-26T08:15:18.373Z,28.63
2023-04-26T08:17:48.763Z,28.65
2023-04-26T08:20:19.964Z,28.71
2023-04-26T08:22:50.275Z,28.75
2023-04-26T08:25:20.523Z,28.79
2023-04-26T08:27:52.852Z,28.83
2023-04-26T08:30:24.169Z,28.86
2023-04-26T08:32:54.355Z,28.89
2023-04-26T08:35:24.637Z,28.92
2023-04-26T08:37:54.761Z,28.95
2023-04-26T08:40:27.135Z,28.98
2023-04-26T08:42:58.636Z,29.00
2023-04-26T08:45:28.846Z,29.03
2023-04-26T08:48:09.557Z,29.06
2023-04-26T08:50:41.778Z,29.09
2023-04-26T08:53:15.821Z,29.11
2023-04-26T08:55:50.684Z,29.13
2023-04-26T08:58:23.110Z,29.15
2023-04-26T09:00:53.753Z,29.18
2023-04-26T09:03:27.529Z,29.20
2023-04-26T09:05:58.219Z,29.21
2023-04-26T09:08:28.700Z,29.24
2023-04-26T09:10:58.849Z,29.26
2023-04-26T09:13:32.927Z,29.28
2023-04-26T09:16:04.997Z,29.30
2023-04-26T09:18:34.878Z,29.33
2023-04-26T09:21:08.070Z,29.35
2023-04-26T09:23:38.818Z,29.37
2023-04-26T09:26:23.104Z,29.40
2023-04-26T09:29:15.868Z,29.42
2023-04-26T09:31:50.002Z,29.41
2023-04-26T09:34:20.525Z,29.44
2023-04-26T09:36:53.190Z,29.45
2023-04-26T09:39:40.363Z,29.47
2023-04-26T09:42:11.630Z,29.46
2023-04-26T09:44:43.708Z,29.46
2023-04-26T09:47:14.749Z,29.48
2023-04-26T09:49:51.186Z,29.49
2023-04-26T09:52:22.221Z,29.48
2023-04-26T09:54:54.665Z,29.48
2023-04-26T09:57:25.568Z,29.49
2023-04-26T09:59:57.881Z,29.49
2023-04-26T10:02:30.540Z,29.49
2023-04-26T10:05:02.568Z,29.48
2023-04-26T10:07:33.986Z,29.49
2023-04-26T10:10:05.934Z,29.49
2023-04-26T10:12:38.258Z,29.50
2023-04-26T10:15:13.504Z,29.50
2023-04-26T10:17:43.748Z,29.49
2023-04-26T10:20:17.766Z,29.50
2023-04-26T10:22:54.763Z,29.51
2023-04-26T10:25:38.656Z,29.51
2023-04-26T10:28:09.428Z,29.52
2023-04-26T10:31:00.146Z,29.52
2023-04-26T10:33:29.938Z,29.52
2023-04-26T10:36:14.005Z,29.53
2023-04-26T10:39:28.665Z,29.55
2023-04-26T10:42:27.826Z,29.53
2023-04-26T10:45:01.230Z,29.54
2023-04-26T10:47:37.856Z,29.54
2023-04-26T10:50:11.022Z,29.55
2023-04-26T10:53:07.873Z,29.55
2023-04-26T10:55:44.567Z,29.55
2023-04-26T10:58:31.037Z,29.56
2023-04-26T11:01:08.819Z,29.55
2023-04-26T11:03:42.929Z,29.56
2023-04-26T11:06:14.300Z,29.57
2023-04-26T11:08:44.790Z,29.57
2023-04-26T11:11:16.147Z,29.59
2023-04-26T11:13:47.292Z,29.58
2023-04-26T11:16:19.544Z,29.58
2023-04-26T11:18:51.748Z,29.59
2023-04-26T11:21:25.128Z,29.60
2023-04-26T11:23:58.374Z,29.61
2023-04-26T11:26:37.077Z,29.62
2023-04-26T11:29:10.050Z,29.61
2023-04-26T11:31:40.155Z,29.61
2023-04-26T11:34:12.208Z,29.63
2023-04-26T11:36:42.303Z,29.64
2023-04-26T11:39:14.140Z,29.64
2023-04-26T11:41:44.518Z,29.65
2023-04-26T11:44:15.174Z,29.65
2023-04-26T11:46:45.902Z,29.65
2023-04-26T11:49:19.544Z,29.66
2023-04-26T11:51:51.815Z,29.67
2023-04-26T11:54:35.003Z,29.65
2023-04-26T11:57:17.219Z,29.63
2023-04-26T11:59:48.702Z,29.62
2023-04-26T12:02:19.503Z,29.60
2023-04-26T12:05:01.665Z,29.60
2023-04-26T12:07:38.347Z,29.58
2023-04-26T12:10:19.040Z,29.59
2023-04-26T12:12:51.982Z,29.56
2023-04-26T12:15:26.092Z,29.56
2023-04-26T12:17:58.974Z,29.55
2023-04-26T12:20:36.936Z,29.55
2023-04-26T12:23:09.806Z,29.53
2023-04-26T12:25:42.284Z,29.53
2023-04-26T12:28:14.689Z,29.52
2023-04-26T12:30:45.388Z,29.51
2023-04-26T12:33:17.676Z,29.52
2023-04-26T12:35:50.349Z,29.51
2023-04-26T12:38:20.800Z,29.51
2023-04-26T12:40:51.863Z,29.50
2023-04-26T12:43:24.482Z,29.50
2023-04-26T12:45:55.065Z,29.49
2023-04-26T12:48:24.727Z,29.48
2023-04-26T12:50:56.338Z,29.46
2023-04-26T12:53:26.561Z,29.44
2023-04-26T12:55:56.339Z,29.42
2023-04-26T12:58:26.598Z,29.41
2023-04-26T13:00:56.811Z,29.38
2023-04-26T13:03:27.941Z,29.35
2023-04-26T13:05:58.990Z,29.34
2023-04-26T13:08:29.180Z,29.30
2023-04-26T13:10:59.615Z,29.27
2023-04-26T13:13:42.423Z,29.26
2023-04-26T13:16:14.521Z,29.23
2023-04-26T13:18:44.104Z,29.21
2023-04-26T13:21:15.707Z,29.21
2023-04-26T13:23:46.715Z,29.19
2023-04-26T13:26:18.579Z,29.19
2023-04-26T13:28:48.814Z,29.18
2023-04-26T13:31:19.700Z,29.17
2023-04-26T13:33:50.368Z,29.14
2023-04-26T13:36:22.461Z,29.13
2023-04-26T13:38:52.453Z,29.12
2023-04-26T13:41:22.805Z,29.12
2023-04-26T13:43:52.617Z,29.10
2023-04-26T13:46:22.754Z,29.08
2023-04-26T13:48:53.002Z,29.08
2023-04-26T13:51:27.406Z,29.06
2023-04-26T13:53:57.113Z,29.06
2023-04-26T13:56:27.130Z,29.05
2023-04-26T13:58:58.432Z,29.05
2023-04-26T14:01:29.046Z,29.04
2023-04-26T14:03:59.565Z,29.02
2023-04-26T14:06:33.322Z,29.01
2023-04-26T14:09:05.794Z,29.00
2023-04-26T14:11:36.111Z,28.99
2023-04-26T14:14:06.755Z,28.98
2023-04-26T14:16:37.191Z,28.96
2023-04-26T14:19:07.570Z,28.94
2023-04-26T14:21:39.114Z,28.94
2023-04-26T14:24:09.977Z,28.92
2023-04-26T14:26:39.638Z,28.89
2023-04-26T14:29:09.605Z,28.88
2023-04-26T14:31:40.115Z,28.86
2023-04-26T14:34:10.620Z,28.85
2023-04-26T14:36:42.253Z,28.83
2023-04-26T14:39:12.710Z,28.81
2023-04-26T14:41:42.851Z,28.79
2023-04-26T14:44:13.223Z,28.78
2023-04-26T14:46:43.564Z,28.76
2023-04-26T14:49:13.325Z,28.74
2023-04-26T14:51:45.215Z,28.73
2023-04-26T14:54:15.858Z,28.70
2023-04-26T14:56:46.050Z,28.70
2023-04-26T14:59:15.700Z,28.67
2023-04-26T15:01:45.767Z,28.66
2023-04-26T15:04:15.697Z,28.64
2023-04-26T15:06:48.106Z,28.63
2023-04-26T15:09:19.277Z,28.63
2023-04-26T15:11:49.081Z,28.63
2023-04-26T15:14:19.293Z,28.61
2023-04-26T15:16:49.340Z,28.59
2023-04-26T15:19:19.562Z,28.58
2023-04-26T15:21:51.810Z,28.55
2023-04-26T15:24:22.511Z,28.54
2023-04-26T15:26:52.757Z,28.53
2023-04-26T15:29:22.872Z,28.52
2023-04-26T15:31:53.299Z,28.51
2023-04-26T15:34:24.866Z,28.50
2023-04-26T15:36:57.011Z,28.49
2023-04-26T15:39:27.312Z,28.47
2023-04-26T15:41:58.143Z,28.46
2023-04-26T15:44:28.166Z,28.44
2023-04-26T15:46:58.378Z,28.44
2023-04-26T15:49:28.806Z,28.42
2023-04-26T15:52:01.183Z,28.42
2023-04-26T15:54:30.841Z,28.41
2023-04-26T15:57:00.771Z,28.39
2023-04-26T15:59:31.077Z,28.37
2023-04-26T16:02:01.318Z,28.36
2023-04-26T16:04:31.624Z,28.35
2023-04-26T16:07:03.438Z,28.33
2023-04-26T16:09:33.575Z,28.31
2023-04-26T16:12:04.154Z,28.30
2023-04-26T16:14:36.745Z,28.29
2023-04-26T16:17:07.128Z,28.27
2023-04-26T16:19:36.838Z,28.25
2023-04-26T16:22:08.955Z,28.24
2023-04-26T16:24:38.582Z,28.23
2023-04-26T16:27:09.056Z,28.21
2023-04-26T16:29:39.323Z,28.20
2023-04-26T16:32:08.937Z,28.18
2023-04-26T16:34:38.656Z,28.18
2023-04-26T16:37:10.884Z,28.16
2023-04-26T16:39:40.584Z,28.14
2023-04-26T16:42:10.827Z,28.13
2023-04-26T16:44:41.389Z,28.12
2023-04-26T16:47:11.926Z,28.09
2023-04-26T16:49:41.739Z,28.09
2023-04-26T16:52:13.958Z,28.07
2023-04-26T16:54:44.163Z,28.05
2023-04-26T16:57:14.542Z,28.04
2023-04-26T16:59:45.433Z,28.03
2023-04-26T17:02:16.461Z,28.01
2023-04-26T17:04:47.978Z,28.00
2023-04-26T17:07:20.462Z,27.99
2023-04-26T17:09:54.180Z,27.97
2023-04-26T17:12:24.204Z,27.95
2023-04-26T17:14:54.408Z,27.94
2023-04-26T17:17:24.321Z,27.92
2023-04-26T17:19:54.380Z,27.91
2023-04-26T17:22:27.249Z,27.89
2023-04-26T17:24:57.387Z,27.88
2023-04-26T17:27:27.547Z,27.86
2023-04-26T17:29:57.977Z,27.86
2023-04-26T17:32:28.696Z,27.85
2023-04-26T17:34:58.815Z,27.82
2023-04-26T17:37:30.943Z,27.83
2023-04-26T17:40:00.569Z,27.80
2023-04-26T17:42:30.312Z,27.79
2023-04-26T17:45:01.503Z,27.77
2023-04-26T17:47:31.590Z,27.76
2023-04-26T17:50:02.113Z,27.75
2023-04-26T17:52:33.772Z,27.73
2023-04-26T17:55:05.437Z,27.71
2023-04-26T17:57:35.691Z,27.70
2023-04-26T18:00:06.914Z,27.70
2023-04-26T18:02:38.687Z,27.67
2023-04-26T18:05:10.770Z,27.66
2023-04-26T18:07:43.477Z,27.65
2023-04-26T18:10:13.547Z,27.64
2023-04-26T18:12:43.337Z,27.62
2023-04-26T18:15:14.109Z,27.61
2023-04-26T18:17:44.144Z,27.60
2023-04-26T18:20:15.622Z,27.59
2023-04-26T18:22:47.720Z,27.57
2023-04-26T18:25:17.940Z,27.56
2023-04-26T18:27:49.322Z,27.55
2023-04-26T18:30:19.672Z,27.53
2023-04-26T18:32:49.734Z,27.52
2023-04-26T18:35:19.739Z,27.51
2023-04-26T18:37:51.886Z,27.50
2023-04-26T18:40:22.295Z,27.49
2023-04-26T18:42:52.590Z,27.47
2023-04-26T18:45:22.206Z,27.46
2023-04-26T18:47:55.096Z,27.45
2023-04-26T18:50:24.898Z,27.41
2023-04-26T18:52:57.242Z,27.40
2023-04-26T18:55:27.971Z,27.39
2023-04-26T18:57:58.487Z,27.38
2023-04-26T19:00:28.905Z,27.37
2023-04-26T19:02:59.301Z,27.36
2023-04-26T19:05:29.692Z,27.34
2023-04-26T19:08:02.534Z,27.33
2023-04-26T19:10:32.506Z,27.32
2023-04-26T19:13:02.957Z,27.31
2023-04-26T19:15:33.213Z,27.29
2023-04-26T19:18:03.077Z,27.28
2023-04-26T19:20:33.282Z,27.27
2023-04-26T19:23:05.362Z,27.26
2023-04-26T19:25:35.704Z,27.25
2023-04-26T19:28:05.743Z,27.25
2023-04-26T19:30:35.952Z,27.22
2023-04-26T19:33:06.350Z,27.21
2023-04-26T19:35:36.850Z,27.20
2023-04-26T19:38:08.409Z,27.18
2023-04-26T19:40:39.180Z,27.16
2023-04-26T19:43:09.202Z,27.15
2023-04-26T19:45:41.264Z,27.14
2023-04-26T19:48:11.222Z,27.13
2023-04-26T19:50:42.871Z,27.12
2023-04-26T19:53:17.086Z,27.10
2023-04-26T19:55:47.022Z,27.08
2023-04-26T19:58:17.469Z,27.07
2023-04-26T20:00:47.831Z,27.05
2023-04-26T20:03:18.227Z,27.05
2023-04-26T20:05:48.485Z,27.03
2023-04-26T20:08:20.635Z,27.02
2023-04-26T20:10:50.952Z,27.01
2023-04-26T20:13:21.098Z,27.00
2023-04-26T20:15:51.191Z,27.00
2023-04-26T20:18:21.714Z,26.99
2023-04-26T20:20:52.806Z,26.98
2023-04-26T20:23:24.942Z,26.98
2023-04-26T20:25:55.257Z,26.96
2023-04-26T20:28:26.121Z,26.96
2023-04-26T20:30:56.000Z,26.94
2023-04-26T20:33:25.618Z,26.92
2023-04-26T20:35:55.815Z,26.91
2023-04-26T20:38:27.740Z,26.90
2023-04-26T20:40:57.705Z,26.89
2023-04-26T20:43:27.687Z,26.87
2023-04-26T20:45:57.944Z,26.84
2023-04-26T20:48:28.035Z,26.83
2023-04-26T20:50:59.254Z,26.80
2023-04-26T20:53:31.685Z,26.80
2023-04-26T20:56:01.789Z,26.76
2023-04-26T20:58:32.149Z,26.74
2023-04-26T21:01:01.858Z,26.70
2023-04-26T21:03:32.816Z,26.66
2023-04-26T21:06:03.134Z,26.62
2023-04-26T21:08:36.485Z,26.57
2023-04-26T21:11:06.758Z,26.55
2023-04-26T21:13:36.738Z,26.52
2023-04-26T21:16:07.890Z,26.50
2023-04-26T21:18:37.825Z,26.50
2023-04-26T21:21:07.443Z,26.49
2023-04-26T21:23:39.956Z,26.49
2023-04-26T21:26:10.354Z,26.49
2023-04-26T21:28:40.309Z,26.49
2023-04-26T21:31:10.506Z,26.49
2023-04-26T21:33:40.215Z,26.48
2023-04-26T21:36:10.558Z,26.45
2023-04-26T21:38:43.195Z,26.43
2023-04-26T21:41:13.078Z,26.42
2023-04-26T21:43:43.377Z,26.39
2023-04-26T21:46:13.644Z,26.39
2023-04-26T21:48:43.849Z,26.38
2023-04-26T21:51:14.029Z,26.38
2023-04-26T21:53:45.664Z,26.38
2023-04-26T21:56:15.998Z,26.38
2023-04-26T21:58:46.669Z,26.37
2023-04-26T22:01:17.994Z,26.37
2023-04-26T22:03:48.210Z,26.36
2023-04-26T22:06:18.450Z,26.34
2023-04-26T22:08:57.440Z,26.34
2023-04-26T22:11:27.544Z,26.33
2023-04-26T22:13:57.854Z,26.34
2023-04-26T22:16:28.005Z,26.33
2023-04-26T22:18:58.025Z,26.34
2023-04-26T22:21:28.892Z,26.34
2023-04-26T22:24:01.475Z,26.35
2023-04-26T22:26:31.775Z,26.33
2023-04-26T22:29:01.484Z,26.33
2023-04-26T22:31:31.909Z,26.33
2023-04-26T22:34:02.269Z,26.32
2023-04-26T22:36:32.912Z,26.32
2023-04-26T22:39:05.140Z,26.31
2023-04-26T22:41:35.378Z,26.30
2023-04-26T22:44:05.102Z,26.29
2023-04-26T22:46:35.095Z,26.29
2023-04-26T22:49:05.306Z,26.29
2023-04-26T22:51:35.553Z,26.28
2023-04-26T22:54:08.033Z,26.29
2023-04-26T22:56:38.234Z,26.27
2023-04-26T22:59:08.646Z,26.27
2023-04-26T23:01:39.085Z,26.27
2023-04-26T23:04:09.368Z,26.25
2023-04-26T23:06:39.512Z,26.25
2023-04-26T23:09:11.980Z,26.25
2023-04-26T23:11:42.366Z,26.24
2023-04-26T23:14:12.867Z,26.24
2023-04-26T23:16:43.250Z,26.23
2023-04-26T23:19:13.478Z,26.22
2023-04-26T23:21:43.641Z,26.22
2023-04-26T23:24:16.345Z,26.20
2023-04-26T23:26:46.427Z,26.20
2023-04-26T23:29:16.953Z,26.18
2023-04-26T23:31:48.024Z,26.16
2023-04-26T23:34:17.665Z,26.13
2023-04-26T23:36:47.659Z,26.12
2023-04-26T23:39:19.970Z,26.10
2023-04-26T23:41:50.219Z,26.08
2023-04-26T23:44:20.414Z,26.07
2023-04-26T23:46:50.846Z,26.05
2023-04-26T23:49:20.701Z,26.04
2023-04-26T23:51:50.770Z,26.02
2023-04-26T23:54:22.500Z,26.02
2023-04-26T23:56:52.583Z,26.01
2023-04-26T23:59:23.547Z,26.00
